sensor_id;sensor_type;location;lat;lon;timestamp;P1;durP1;ratioP1;P2;durP2;ratioP2
12792;SDS011;6460;42.684;23.260;2022-11-15T00:02:21;69.57;;;46.07;;
12792;SDS011;6460;42.684;23.260;2022-11-15T00:04:48;78.80;;;47.03;;
12792;SDS011;6460;42.684;23.260;2022-11-15T00:07:15;72.63;;;45.70;;
12792;SDS011;6460;42.684;23.260;2022-11-15T00:09:44;74.40;;;46.90;;
12792;SDS011;6460;42.684;23.260;2022-11-15T00:12:10;69.30;;;46.77;;
12792;SDS011;6460;42.684;23.260;2022-11-15T00:14:38;71.43;;;45.33;;
12792;SDS011;6460;42.684;23.260;2022-11-15T00:17:05;68.23;;;44.80;;
12792;SDS011;6460;42.684;23.260;2022-11-15T00:19:32;72.73;;;44.57;;
12792;SDS011;6460;42.684;23.260;2022-11-15T00:22:00;62.47;;;41.77;;
12792;SDS011;6460;42.684;23.260;2022-11-15T00:24:27;63.67;;;41.70;;
12792;SDS011;6460;42.684;23.260;2022-11-15T00:26:55;65.37;;;41.87;;
12792;SDS011;6460;42.684;23.260;2022-11-15T00:29:23;65.53;;;42.60;;
12792;SDS011;6460;42.684;23.260;2022-11-15T00:31:50;66.50;;;42.07;;
12792;SDS011;6460;42.684;23.260;2022-11-15T00:34:18;70.30;;;40.77;;
12792;SDS011;6460;42.684;23.260;2022-11-15T00:36:45;64.33;;;41.57;;
12792;SDS011;6460;42.684;23.260;2022-11-15T00:39:12;62.03;;;40.43;;
12792;SDS011;6460;42.684;23.260;2022-11-15T00:41:39;65.43;;;40.87;;
12792;SDS011;6460;42.684;23.260;2022-11-15T00:44:08;68.07;;;40.70;;
12792;SDS011;6460;42.684;23.260;2022-11-15T00:46:35;64.77;;;41.90;;
12792;SDS011;6460;42.684;23.260;2022-11-15T00:49:02;68.60;;;41.53;;
12792;SDS011;6460;42.684;23.260;2022-11-15T00:51:29;67.40;;;43.40;;
12792;SDS011;6460;42.684;23.260;2022-11-15T00:53:57;70.57;;;43.43;;
12792;SDS011;6460;42.684;23.260;2022-11-15T00:56:24;65.37;;;43.53;;
12792;SDS011;6460;42.684;23.260;2022-11-15T00:58:52;65.47;;;42.03;;
12792;SDS011;6460;42.684;23.260;2022-11-15T01:01:20;62.43;;;40.80;;
12792;SDS011;6460;42.684;23.260;2022-11-15T01:03:48;58.77;;;39.50;;
12792;SDS011;6460;42.684;23.260;2022-11-15T01:06:15;59.07;;;38.13;;
12792;SDS011;6460;42.684;23.260;2022-11-15T01:08:42;57.87;;;39.43;;
12792;SDS011;6460;42.684;23.260;2022-11-15T01:11:09;64.47;;;39.73;;
12792;SDS011;6460;42.684;23.260;2022-11-15T01:13:38;63.80;;;40.53;;
12792;SDS011;6460;42.684;23.260;2022-11-15T01:16:06;61.10;;;38.10;;
12792;SDS011;6460;42.684;23.260;2022-11-15T01:18:36;62.50;;;38.77;;
12792;SDS011;6460;42.684;23.260;2022-11-15T01:21:07;60.40;;;39.87;;
12792;SDS011;6460;42.684;23.260;2022-11-15T01:23:35;58.87;;;38.60;;
12792;SDS011;6460;42.684;23.260;2022-11-15T01:26:03;59.83;;;38.77;;
12792;SDS011;6460;42.684;23.260;2022-11-15T01:28:32;64.30;;;39.43;;
12792;SDS011;6460;42.684;23.260;2022-11-15T01:31:01;59.03;;;38.43;;
12792;SDS011;6460;42.684;23.260;2022-11-15T01:33:30;56.80;;;36.20;;
12792;SDS011;6460;42.684;23.260;2022-11-15T01:35:58;58.37;;;37.80;;
12792;SDS011;6460;42.684;23.260;2022-11-15T01:38:30;62.53;;;39.97;;
12792;SDS011;6460;42.684;23.260;2022-11-15T01:40:57;61.30;;;40.40;;
12792;SDS011;6460;42.684;23.260;2022-11-15T01:43:25;65.60;;;40.20;;
12792;SDS011;6460;42.684;23.260;2022-11-15T01:45:55;62.37;;;39.00;;
12792;SDS011;6460;42.684;23.260;2022-11-15T01:48:25;64.83;;;39.03;;
12792;SDS011;6460;42.684;23.260;2022-11-15T01:50:59;57.37;;;37.77;;
12792;SDS011;6460;42.684;23.260;2022-11-15T01:53:29;60.07;;;38.20;;
12792;SDS011;6460;42.684;23.260;2022-11-15T01:55:58;62.43;;;39.50;;
12792;SDS011;6460;42.684;23.260;2022-11-15T01:58:29;66.07;;;40.57;;
12792;SDS011;6460;42.684;23.260;2022-11-15T02:00:56;61.67;;;39.63;;
12792;SDS011;6460;42.684;23.260;2022-11-15T02:03:25;61.13;;;38.50;;
12792;SDS011;6460;42.684;23.260;2022-11-15T02:05:57;62.43;;;40.30;;
12792;SDS011;6460;42.684;23.260;2022-11-15T02:08:26;61.23;;;37.07;;
12792;SDS011;6460;42.684;23.260;2022-11-15T02:10:53;59.27;;;36.90;;
12792;SDS011;6460;42.684;23.260;2022-11-15T02:13:20;56.23;;;36.53;;
12792;SDS011;6460;42.684;23.260;2022-11-15T02:15:50;56.27;;;36.43;;
12792;SDS011;6460;42.684;23.260;2022-11-15T02:18:26;57.10;;;35.47;;
12792;SDS011;6460;42.684;23.260;2022-11-15T02:21:02;55.20;;;35.20;;
12792;SDS011;6460;42.684;23.260;2022-11-15T02:23:56;55.37;;;34.80;;
12792;SDS011;6460;42.684;23.260;2022-11-15T02:29:53;53.93;;;33.87;;
12792;SDS011;6460;42.684;23.260;2022-11-15T02:32:32;52.10;;;34.63;;
12792;SDS011;6460;42.684;23.260;2022-11-15T02:35:10;58.50;;;36.80;;
12792;SDS011;6460;42.684;23.260;2022-11-15T02:37:47;57.60;;;36.90;;
12792;SDS011;6460;42.684;23.260;2022-11-15T02:40:22;59.33;;;38.43;;
12792;SDS011;6460;42.684;23.260;2022-11-15T02:42:56;54.23;;;36.77;;
12792;SDS011;6460;42.684;23.260;2022-11-15T02:45:48;55.17;;;34.63;;
12792;SDS011;6460;42.684;23.260;2022-11-15T02:48:20;58.47;;;34.70;;
12792;SDS011;6460;42.684;23.260;2022-11-15T02:50:49;49.77;;;32.50;;
12792;SDS011;6460;42.684;23.260;2022-11-15T02:53:18;50.83;;;32.30;;
12792;SDS011;6460;42.684;23.260;2022-11-15T02:55:50;49.33;;;32.67;;
12792;SDS011;6460;42.684;23.260;2022-11-15T03:01:23;51.60;;;32.60;;
12792;SDS011;6460;42.684;23.260;2022-11-15T03:04:06;51.57;;;31.67;;
12792;SDS011;6460;42.684;23.260;2022-11-15T03:06:47;50.90;;;33.10;;
12792;SDS011;6460;42.684;23.260;2022-11-15T03:09:22;58.20;;;34.97;;
12792;SDS011;6460;42.684;23.260;2022-11-15T03:11:57;56.63;;;34.37;;
12792;SDS011;6460;42.684;23.260;2022-11-15T03:14:30;52.57;;;34.67;;
12792;SDS011;6460;42.684;23.260;2022-11-15T03:17:05;51.80;;;34.67;;
12792;SDS011;6460;42.684;23.260;2022-11-15T03:19:41;51.60;;;35.57;;
12792;SDS011;6460;42.684;23.260;2022-11-15T03:22:13;49.40;;;32.57;;
12792;SDS011;6460;42.684;23.260;2022-11-15T03:24:43;48.83;;;32.53;;
12792;SDS011;6460;42.684;23.260;2022-11-15T03:27:12;48.97;;;32.53;;
12792;SDS011;6460;42.684;23.260;2022-11-15T03:29:44;53.30;;;34.13;;
12792;SDS011;6460;42.684;23.260;2022-11-15T03:32:14;55.60;;;36.93;;
12792;SDS011;6460;42.684;23.260;2022-11-15T03:34:47;55.97;;;35.53;;
12792;SDS011;6460;42.684;23.260;2022-11-15T03:37:17;48.50;;;33.17;;
12792;SDS011;6460;42.684;23.260;2022-11-15T03:39:49;51.37;;;33.30;;
12792;SDS011;6460;42.684;23.260;2022-11-15T03:42:19;46.53;;;31.37;;
12792;SDS011;6460;42.684;23.260;2022-11-15T03:44:51;46.30;;;30.70;;
12792;SDS011;6460;42.684;23.260;2022-11-15T03:47:26;48.70;;;31.43;;
12792;SDS011;6460;42.684;23.260;2022-11-15T03:49:59;44.33;;;29.77;;
12792;SDS011;6460;42.684;23.260;2022-11-15T03:52:30;47.33;;;31.43;;
12792;SDS011;6460;42.684;23.260;2022-11-15T03:55:00;46.20;;;30.20;;
12792;SDS011;6460;42.684;23.260;2022-11-15T03:57:29;44.60;;;30.40;;
12792;SDS011;6460;42.684;23.260;2022-11-15T03:59:56;43.33;;;30.00;;
12792;SDS011;6460;42.684;23.260;2022-11-15T04:02:24;45.03;;;30.13;;
12792;SDS011;6460;42.684;23.260;2022-11-15T04:04:51;45.33;;;31.57;;
12792;SDS011;6460;42.684;23.260;2022-11-15T04:07:19;46.10;;;31.63;;
12792;SDS011;6460;42.684;23.260;2022-11-15T04:09:47;47.10;;;29.53;;
12792;SDS011;6460;42.684;23.260;2022-11-15T04:12:30;49.33;;;31.80;;
12792;SDS011;6460;42.684;23.260;2022-11-15T04:14:59;46.57;;;30.97;;
12792;SDS011;6460;42.684;23.260;2022-11-15T04:17:37;45.87;;;30.33;;
12792;SDS011;6460;42.684;23.260;2022-11-15T04:20:06;49.13;;;31.33;;
12792;SDS011;6460;42.684;23.260;2022-11-15T04:22:56;45.30;;;31.13;;
12792;SDS011;6460;42.684;23.260;2022-11-15T04:25:41;47.43;;;32.07;;
12792;SDS011;6460;42.684;23.260;2022-11-15T04:28:10;54.20;;;32.70;;
12792;SDS011;6460;42.684;23.260;2022-11-15T04:30:38;52.83;;;34.10;;
12792;SDS011;6460;42.684;23.260;2022-11-15T04:33:05;52.50;;;33.43;;
12792;SDS011;6460;42.684;23.260;2022-11-15T04:35:32;52.00;;;32.70;;
12792;SDS011;6460;42.684;23.260;2022-11-15T04:38:01;49.93;;;31.97;;
12792;SDS011;6460;42.684;23.260;2022-11-15T04:40:28;60.30;;;35.30;;
12792;SDS011;6460;42.684;23.260;2022-11-15T04:42:56;64.57;;;35.37;;
12792;SDS011;6460;42.684;23.260;2022-11-15T04:45:24;63.77;;;36.20;;
12792;SDS011;6460;42.684;23.260;2022-11-15T04:47:51;69.87;;;39.40;;
12792;SDS011;6460;42.684;23.260;2022-11-15T04:50:18;71.97;;;42.30;;
12792;SDS011;6460;42.684;23.260;2022-11-15T04:52:50;73.73;;;40.83;;
12792;SDS011;6460;42.684;23.260;2022-11-15T04:55:20;81.07;;;43.67;;
12792;SDS011;6460;42.684;23.260;2022-11-15T04:57:47;75.17;;;40.43;;
12792;SDS011;6460;42.684;23.260;2022-11-15T05:00:23;77.97;;;41.33;;
12792;SDS011;6460;42.684;23.260;2022-11-15T05:02:50;84.53;;;42.83;;
12792;SDS011;6460;42.684;23.260;2022-11-15T05:05:35;90.20;;;46.13;;
12792;SDS011;6460;42.684;23.260;2022-11-15T05:08:02;93.43;;;48.63;;
12792;SDS011;6460;42.684;23.260;2022-11-15T05:10:31;99.97;;;49.93;;
12792;SDS011;6460;42.684;23.260;2022-11-15T05:12:58;103.77;;;50.77;;
12792;SDS011;6460;42.684;23.260;2022-11-15T05:15:25;115.73;;;52.80;;
12792;SDS011;6460;42.684;23.260;2022-11-15T05:17:56;108.23;;;52.83;;
12792;SDS011;6460;42.684;23.260;2022-11-15T05:20:24;113.97;;;52.63;;
12792;SDS011;6460;42.684;23.260;2022-11-15T05:22:51;97.40;;;48.60;;
12792;SDS011;6460;42.684;23.260;2022-11-15T05:25:19;94.73;;;47.47;;
12792;SDS011;6460;42.684;23.260;2022-11-15T05:30:23;99.70;;;45.90;;
12792;SDS011;6460;42.684;23.260;2022-11-15T05:32:51;101.33;;;47.47;;
12792;SDS011;6460;42.684;23.260;2022-11-15T05:37:54;97.60;;;45.50;;
12792;SDS011;6460;42.684;23.260;2022-11-15T05:40:22;103.73;;;49.77;;
12792;SDS011;6460;42.684;23.260;2022-11-15T05:42:50;105.17;;;49.10;;
12792;SDS011;6460;42.684;23.260;2022-11-15T05:45:19;108.83;;;50.37;;
12792;SDS011;6460;42.684;23.260;2022-11-15T05:47:48;116.53;;;53.13;;
12792;SDS011;6460;42.684;23.260;2022-11-15T05:50:16;120.23;;;54.13;;
12792;SDS011;6460;42.684;23.260;2022-11-15T05:52:45;125.13;;;55.13;;
12792;SDS011;6460;42.684;23.260;2022-11-15T05:55:14;135.20;;;56.43;;
12792;SDS011;6460;42.684;23.260;2022-11-15T05:57:41;142.80;;;57.83;;
12792;SDS011;6460;42.684;23.260;2022-11-15T06:00:10;185.77;;;69.30;;
12792;SDS011;6460;42.684;23.260;2022-11-15T06:02:38;245.30;;;78.47;;
12792;SDS011;6460;42.684;23.260;2022-11-15T06:05:07;164.63;;;60.03;;
12792;SDS011;6460;42.684;23.260;2022-11-15T06:07:34;127.37;;;52.70;;
12792;SDS011;6460;42.684;23.260;2022-11-15T06:10:06;96.63;;;40.80;;
12792;SDS011;6460;42.684;23.260;2022-11-15T06:12:34;96.30;;;42.27;;
12792;SDS011;6460;42.684;23.260;2022-11-15T06:15:01;139.90;;;55.17;;
12792;SDS011;6460;42.684;23.260;2022-11-15T06:17:29;122.60;;;51.50;;
12792;SDS011;6460;42.684;23.260;2022-11-15T06:19:58;128.90;;;50.63;;
12792;SDS011;6460;42.684;23.260;2022-11-15T06:22:27;144.10;;;49.07;;
12792;SDS011;6460;42.684;23.260;2022-11-15T06:27:29;118.07;;;48.10;;
12792;SDS011;6460;42.684;23.260;2022-11-15T06:29:59;116.80;;;47.03;;
12792;SDS011;6460;42.684;23.260;2022-11-15T06:32:28;105.67;;;47.10;;
12792;SDS011;6460;42.684;23.260;2022-11-15T06:34:56;103.63;;;45.63;;
12792;SDS011;6460;42.684;23.260;2022-11-15T06:37:24;93.17;;;43.20;;
12792;SDS011;6460;42.684;23.260;2022-11-15T06:39:52;93.60;;;43.63;;
12792;SDS011;6460;42.684;23.260;2022-11-15T06:42:20;97.93;;;45.23;;
12792;SDS011;6460;42.684;23.260;2022-11-15T06:44:47;106.40;;;48.00;;
12792;SDS011;6460;42.684;23.260;2022-11-15T06:47:15;109.90;;;49.00;;
12792;SDS011;6460;42.684;23.260;2022-11-15T06:49:42;120.90;;;56.03;;
12792;SDS011;6460;42.684;23.260;2022-11-15T06:52:09;118.63;;;57.20;;
12792;SDS011;6460;42.684;23.260;2022-11-15T06:54:37;144.27;;;68.03;;
12792;SDS011;6460;42.684;23.260;2022-11-15T06:57:06;131.03;;;66.73;;
12792;SDS011;6460;42.684;23.260;2022-11-15T06:59:33;144.90;;;69.87;;
12792;SDS011;6460;42.684;23.260;2022-11-15T07:02:00;141.73;;;72.47;;
12792;SDS011;6460;42.684;23.260;2022-11-15T07:04:27;150.17;;;70.47;;
12792;SDS011;6460;42.684;23.260;2022-11-15T07:06:54;126.57;;;63.97;;
12792;SDS011;6460;42.684;23.260;2022-11-15T07:09:22;121.07;;;58.17;;
12792;SDS011;6460;42.684;23.260;2022-11-15T07:11:49;127.57;;;58.83;;
12792;SDS011;6460;42.684;23.260;2022-11-15T07:14:17;108.93;;;52.83;;
12792;SDS011;6460;42.684;23.260;2022-11-15T07:16:44;124.57;;;52.73;;
12792;SDS011;6460;42.684;23.260;2022-11-15T07:19:12;102.53;;;49.57;;
12792;SDS011;6460;42.684;23.260;2022-11-15T07:24:14;103.10;;;48.77;;
12792;SDS011;6460;42.684;23.260;2022-11-15T07:26:42;97.97;;;46.43;;
12792;SDS011;6460;42.684;23.260;2022-11-15T07:29:09;98.43;;;46.57;;
12792;SDS011;6460;42.684;23.260;2022-11-15T07:31:37;101.30;;;44.77;;
12792;SDS011;6460;42.684;23.260;2022-11-15T07:34:05;96.60;;;45.20;;
12792;SDS011;6460;42.684;23.260;2022-11-15T07:36:32;98.20;;;45.23;;
12792;SDS011;6460;42.684;23.260;2022-11-15T07:38:59;99.30;;;44.80;;
12792;SDS011;6460;42.684;23.260;2022-11-15T07:41:28;107.50;;;46.33;;
12792;SDS011;6460;42.684;23.260;2022-11-15T07:43:55;99.40;;;44.77;;
12792;SDS011;6460;42.684;23.260;2022-11-15T07:51:34;91.90;;;44.87;;
12792;SDS011;6460;42.684;23.260;2022-11-15T07:56:36;96.67;;;45.80;;
12792;SDS011;6460;42.684;23.260;2022-11-15T08:09:28;101.77;;;48.03;;
12792;SDS011;6460;42.684;23.260;2022-11-15T08:14:30;93.73;;;46.10;;
12792;SDS011;6460;42.684;23.260;2022-11-15T08:22:08;112.67;;;51.13;;
12792;SDS011;6460;42.684;23.260;2022-11-15T08:24:37;114.30;;;51.87;;
12792;SDS011;6460;42.684;23.260;2022-11-15T08:27:04;114.17;;;52.60;;
12792;SDS011;6460;42.684;23.260;2022-11-15T08:29:40;108.10;;;51.13;;
12792;SDS011;6460;42.684;23.260;2022-11-15T08:42:30;117.43;;;53.47;;
12792;SDS011;6460;42.684;23.260;2022-11-15T09:03:06;124.03;;;57.97;;
12792;SDS011;6460;42.684;23.260;2022-11-15T09:39:25;127.70;;;59.27;;
12792;SDS011;6460;42.684;23.260;2022-11-15T09:49:38;137.80;;;65.20;;
12792;SDS011;6460;42.684;23.260;2022-11-15T10:05:06;127.10;;;61.53;;
12792;SDS011;6460;42.684;23.260;2022-11-15T10:10:46;121.40;;;61.57;;
12792;SDS011;6460;42.684;23.260;2022-11-15T10:15:51;121.77;;;62.17;;
12792;SDS011;6460;42.684;23.260;2022-11-15T10:18:23;120.37;;;62.37;;
12792;SDS011;6460;42.684;23.260;2022-11-15T10:26:10;102.83;;;57.53;;
12792;SDS011;6460;42.684;23.260;2022-11-15T10:31:21;102.17;;;58.17;;
12792;SDS011;6460;42.684;23.260;2022-11-15T12:25:50;83.83;;;53.13;;
12792;SDS011;6460;42.684;23.260;2022-11-15T12:49:07;82.07;;;52.50;;
12792;SDS011;6460;42.684;23.260;2022-11-15T13:20:36;91.47;;;60.77;;
12792;SDS011;6460;42.684;23.260;2022-11-15T13:41:17;85.60;;;55.90;;
12792;SDS011;6460;42.684;23.260;2022-11-15T13:59:24;91.13;;;58.17;;
12792;SDS011;6460;42.684;23.260;2022-11-15T14:01:54;92.03;;;58.43;;
12792;SDS011;6460;42.684;23.260;2022-11-15T14:53:32;71.67;;;43.50;;
12792;SDS011;6460;42.684;23.260;2022-11-15T14:58:35;74.10;;;45.77;;
12792;SDS011;6460;42.684;23.260;2022-11-15T15:01:02;73.33;;;43.50;;
12792;SDS011;6460;42.684;23.260;2022-11-15T15:03:37;75.47;;;44.30;;
12792;SDS011;6460;42.684;23.260;2022-11-15T15:06:04;75.90;;;45.17;;
12792;SDS011;6460;42.684;23.260;2022-11-15T15:11:08;77.43;;;44.23;;
12792;SDS011;6460;42.684;23.260;2022-11-15T15:13:40;70.20;;;43.80;;
12792;SDS011;6460;42.684;23.260;2022-11-15T15:16:07;69.83;;;44.47;;
12792;SDS011;6460;42.684;23.260;2022-11-15T15:18:34;76.70;;;46.07;;
12792;SDS011;6460;42.684;23.260;2022-11-15T15:21:01;77.77;;;45.83;;
12792;SDS011;6460;42.684;23.260;2022-11-15T15:23:32;78.07;;;46.33;;
12792;SDS011;6460;42.684;23.260;2022-11-15T15:26:00;76.37;;;48.67;;
12792;SDS011;6460;42.684;23.260;2022-11-15T15:28:29;78.77;;;47.57;;
12792;SDS011;6460;42.684;23.260;2022-11-15T15:30:56;70.83;;;45.73;;
12792;SDS011;6460;42.684;23.260;2022-11-15T15:33:23;77.60;;;46.30;;
12792;SDS011;6460;42.684;23.260;2022-11-15T15:35:49;79.57;;;51.17;;
12792;SDS011;6460;42.684;23.260;2022-11-15T15:38:17;78.00;;;47.23;;
12792;SDS011;6460;42.684;23.260;2022-11-15T15:40:43;77.57;;;49.57;;
12792;SDS011;6460;42.684;23.260;2022-11-15T15:43:10;77.97;;;46.87;;
12792;SDS011;6460;42.684;23.260;2022-11-15T15:45:39;81.13;;;49.63;;
12792;SDS011;6460;42.684;23.260;2022-11-15T15:48:09;76.33;;;47.27;;
12792;SDS011;6460;42.684;23.260;2022-11-15T15:53:13;75.87;;;48.40;;
12792;SDS011;6460;42.684;23.260;2022-11-15T15:55:40;88.03;;;55.43;;
12792;SDS011;6460;42.684;23.260;2022-11-15T15:58:07;96.33;;;59.27;;
12792;SDS011;6460;42.684;23.260;2022-11-15T16:00:36;86.30;;;49.90;;
12792;SDS011;6460;42.684;23.260;2022-11-15T16:03:05;87.73;;;48.87;;
12792;SDS011;6460;42.684;23.260;2022-11-15T16:05:32;84.03;;;50.97;;
12792;SDS011;6460;42.684;23.260;2022-11-15T16:07:59;85.50;;;53.37;;
12792;SDS011;6460;42.684;23.260;2022-11-15T16:10:26;84.07;;;52.07;;
12792;SDS011;6460;42.684;23.260;2022-11-15T16:12:55;105.33;;;57.83;;
12792;SDS011;6460;42.684;23.260;2022-11-15T16:15:23;87.17;;;56.43;;
12792;SDS011;6460;42.684;23.260;2022-11-15T16:17:52;89.57;;;55.63;;
12792;SDS011;6460;42.684;23.260;2022-11-15T16:20:24;91.50;;;55.90;;
12792;SDS011;6460;42.684;23.260;2022-11-15T16:22:56;112.73;;;69.13;;
12792;SDS011;6460;42.684;23.260;2022-11-15T16:35:46;143.27;;;80.77;;
12792;SDS011;6460;42.684;23.260;2022-11-15T16:38:14;106.87;;;61.87;;
12792;SDS011;6460;42.684;23.260;2022-11-15T16:40:41;91.70;;;54.20;;
12792;SDS011;6460;42.684;23.260;2022-11-15T16:43:08;87.30;;;55.17;;
12792;SDS011;6460;42.684;23.260;2022-11-15T16:45:36;85.37;;;55.00;;
12792;SDS011;6460;42.684;23.260;2022-11-15T17:40:17;158.37;;;100.23;;
12792;SDS011;6460;42.684;23.260;2022-11-15T17:42:45;147.57;;;100.90;;
12792;SDS011;6460;42.684;23.260;2022-11-15T18:05:07;116.97;;;69.70;;
12792;SDS011;6460;42.684;23.260;2022-11-15T18:08:25;115.90;;;67.27;;
12792;SDS011;6460;42.684;23.260;2022-11-15T18:37:21;127.27;;;74.03;;
12792;SDS011;6460;42.684;23.260;2022-11-15T18:39:51;125.07;;;76.43;;
12792;SDS011;6460;42.684;23.260;2022-11-15T18:47:28;139.47;;;85.27;;
12792;SDS011;6460;42.684;23.260;2022-11-15T19:05:28;154.80;;;97.53;;
12792;SDS011;6460;42.684;23.260;2022-11-15T19:07:55;149.47;;;94.20;;
12792;SDS011;6460;42.684;23.260;2022-11-15T19:21:28;135.37;;;86.10;;
12792;SDS011;6460;42.684;23.260;2022-11-15T19:23:56;136.80;;;85.93;;
12792;SDS011;6460;42.684;23.260;2022-11-15T19:34:09;135.80;;;84.47;;
12792;SDS011;6460;42.684;23.260;2022-11-15T19:41:48;116.40;;;72.40;;
12792;SDS011;6460;42.684;23.260;2022-11-15T19:44:15;111.27;;;71.10;;
12792;SDS011;6460;42.684;23.260;2022-11-15T19:54:28;124.73;;;77.73;;
12792;SDS011;6460;42.684;23.260;2022-11-15T19:56:57;128.13;;;82.00;;
12792;SDS011;6460;42.684;23.260;2022-11-15T20:27:58;132.03;;;80.30;;
